Time;durP1;ratioP1;P1;durP2;ratioP2;P2;SDS_P1;SDS_P2;PMS_P1;PMS_P2;Temp;Humidity;BMP_temperature;BMP_pressure;BME280_temperature;BME280_humidity;BME280_pressure;Samples;Min_cycle;Max_cycle;Signal;HPM_P1;HPM_P2
2021/11/10 00:01:43;;;;;;;;;;;15.90;66.90;;;;;;4272761;27;19952;-74
2021/11/10 00:03:46;;;;;;;;;;;15.90;67.00;;;;;;4262355;27;19915;-73
2021/11/10 00:05:49;;;;;;;;;;;15.90;67.00;;;;;;4269203;27;19963;-73
2021/11/10 00:07:51;;;;;;;;;;;15.80;67.00;;;;;;4268864;27;19927;-72
2021/11/10 00:09:55;;;;;;;;;;;15.80;67.00;;;;;;4258783;27;19914;-75
2021/11/10 00:11:58;;;;;;;;;;;15.80;67.10;;;;;;4269205;27;20290;-74
2021/11/10 00:14:01;;;;;;;;;;;15.80;67.10;;;;;;4263604;27;19923;-71
2021/11/10 00:16:04;;;;;;;;;;;15.80;67.10;;;;;;4265310;27;19933;-75
2021/11/10 00:18:07;;;;;;;;;;;15.80;67.10;;;;;;4268016;27;20326;-73
2021/11/10 00:20:10;;;;;;;;;;;15.70;67.10;;;;;;4256349;27;19926;-72
2021/11/10 00:22:13;;;;;;;;;;;15.70;67.10;;;;;;4269882;27;19919;-72
2021/11/10 00:24:16;;;;;;;;;;;15.70;67.20;;;;;;4242794;27;19920;-72
2021/11/10 00:26:20;;;;;;;;;;;15.70;67.20;;;;;;4265143;27;20202;-74
2021/11/10 00:28:23;;;;;;;;;;;15.70;67.30;;;;;;4268224;27;19928;-72
2021/11/10 00:30:27;;;;;;;;;;;15.70;67.30;;;;;;4261786;27;20076;-72
2021/11/10 00:32:30;;;;;;;;;;;15.70;67.30;;;;;;4270874;27;19919;-71
2021/11/10 00:34:34;;;;;;;;;;;15.60;67.20;;;;;;4269118;27;19959;-72
2021/11/10 00:36:37;;;;;;;;;;;15.60;67.20;;;;;;4257347;27;19952;-72
2021/11/10 00:38:39;;;;;;;;;;;15.60;67.30;;;;;;4255762;27;19916;-74
2021/11/10 00:40:42;;;;;;;;;;;15.60;67.30;;;;;;4265230;27;19919;-73
2021/11/10 00:42:46;;;;;;;;;;;15.60;67.30;;;;;;4252971;27;19960;-73
2021/11/10 00:44:49;;;;;;;;;;;15.50;67.30;;;;;;4256967;27;19926;-74
2021/11/10 00:46:51;;;;;;;;;;;15.50;67.30;;;;;;4260965;27;20320;-72
2021/11/10 00:48:54;;;;;;;;;;;15.50;67.30;;;;;;4235901;27;19919;-72
2021/11/10 00:51:01;;;;;;;;;;;15.50;67.40;;;;;;4255861;27;19919;-73
2021/11/10 00:53:04;;;;;;;;;;;15.50;67.40;;;;;;4272422;27;19919;-73
2021/11/10 00:55:07;;;;;;;;;;;15.50;67.30;;;;;;4266401;27;19935;-75
2021/11/10 00:57:09;;;;;;;;;;;15.50;67.40;;;;;;4264040;27;19926;-74
2021/11/10 00:59:14;;;;;;;;;;;15.50;67.40;;;;;;4267456;27;19985;-73
2021/11/10 01:01:17;;;;;;;;;;;15.50;67.50;;;;;;4268269;27;19923;-73
2021/11/10 01:03:20;;;;;;;;;;;15.50;67.50;;;;;;4251659;27;19919;-75
2021/11/10 01:05:22;;;;;;;;;;;15.50;67.50;;;;;;4258512;27;19915;-74
2021/11/10 01:07:25;;;;;;;;;;;15.50;67.50;;;;;;4261338;27;19942;-75
2021/11/10 01:09:28;;;;;;;;;;;15.40;67.50;;;;;;4256036;27;20089;-72
2021/11/10 01:11:31;;;;;;;;;;;15.40;67.50;;;;;;4257230;27;19919;-70
2021/11/10 01:13:33;;;;;;;;;;;15.40;67.50;;;;;;4266916;27;19919;-71
2021/11/10 01:15:39;;;;;;;;;;;15.40;67.50;;;;;;4245208;27;20370;-72
2021/11/10 01:17:42;;;;;;;;;;;15.40;67.60;;;;;;4261056;27;19921;-72
2021/11/10 01:19:45;;;;;;;;;;;15.40;67.50;;;;;;4271139;27;19914;-72
2021/11/10 01:21:47;;;;;;;;;;;15.40;67.50;;;;;;4257393;27;19916;-73
2021/11/10 01:23:50;;;;;;;;;;;15.40;67.50;;;;;;4252239;27;20118;-71
2021/11/10 01:25:53;;;;;;;;;;;15.40;67.60;;;;;;4267731;27;19915;-75
2021/11/10 01:27:56;;;;;;;;;;;15.40;67.60;;;;;;4260442;27;20340;-72
2021/11/10 01:29:58;;;;;;;;;;;15.30;67.60;;;;;;4269597;27;19919;-75
2021/11/10 01:32:03;;;;;;;;;;;15.30;67.50;;;;;;4264686;27;19967;-74
2021/11/10 01:34:08;;;;;;;;;;;15.30;67.60;;;;;;4239294;27;20304;-73
2021/11/10 01:36:11;;;;;;;;;;;15.30;67.60;;;;;;4257230;27;19919;-71
2021/11/10 01:38:13;;;;;;;;;;;15.30;67.60;;;;;;4262891;27;19915;-72
2021/11/10 01:40:17;;;;;;;;;;;15.30;67.60;;;;;;4251787;28;20200;-72
2021/11/10 01:42:24;;;;;;;;;;;15.30;67.70;;;;;;4264646;27;19919;-72
2021/11/10 01:44:26;;;;;;;;;;;15.30;67.70;;;;;;4251440;27;20294;-71
2021/11/10 01:46:29;;;;;;;;;;;15.20;67.70;;;;;;4253090;27;19927;-72
2021/11/10 01:48:33;;;;;;;;;;;15.20;67.60;;;;;;4263381;27;19921;-72
2021/11/10 01:50:36;;;;;;;;;;;15.20;67.70;;;;;;4253674;28;19952;-71
2021/11/10 01:52:40;;;;;;;;;;;15.20;67.60;;;;;;4262087;27;19922;-71
2021/11/10 01:54:43;;;;;;;;;;;15.20;67.70;;;;;;4253272;27;19923;-71
2021/11/10 01:56:46;;;;;;;;;;;15.20;67.70;;;;;;4255150;27;19915;-74
2021/11/10 01:58:50;;;;;;;;;;;15.20;67.70;;;;;;4263684;27;19915;-74
2021/11/10 02:00:52;;;;;;;;;;;15.20;67.70;;;;;;4261640;27;19931;-73
2021/11/10 02:02:56;;;;;;;;;;;15.20;67.60;;;;;;4264726;27;19923;-72
2021/11/10 02:05:00;;;;;;;;;;;15.20;67.70;;;;;;4253005;27;19919;-73
2021/11/10 02:07:03;;;;;;;;;;;15.20;67.70;;;;;;4253908;27;19931;-72
2021/11/10 02:09:06;;;;;;;;;;;15.20;67.70;;;;;;4259886;27;19923;-73
2021/11/10 02:11:09;;;;;;;;;;;15.10;67.60;;;;;;4251908;28;19922;-71
2021/11/10 02:13:12;;;;;;;;;;;15.10;67.70;;;;;;4259545;27;20378;-73
2021/11/10 02:15:16;;;;;;;;;;;15.10;67.70;;;;;;4253163;27;19920;-72
2021/11/10 02:17:20;;;;;;;;;;;15.10;67.70;;;;;;4254016;27;19915;-73
2021/11/10 02:19:23;;;;;;;;;;;15.10;67.70;;;;;;4255922;27;19918;-71
2021/11/10 02:21:30;;;;;;;;;;;15.10;67.70;;;;;;4267836;27;19926;-73
2021/11/10 02:23:33;;;;;;;;;;;15.10;67.70;;;;;;4259216;27;19930;-72
2021/11/10 02:25:36;;;;;;;;;;;15.10;67.70;;;;;;4267669;27;19967;-72
2021/11/10 02:27:39;;;;;;;;;;;15.10;67.70;;;;;;4267534;27;19922;-72
2021/11/10 02:29:42;;;;;;;;;;;15.10;67.70;;;;;;4257659;27;19919;-72
2021/11/10 02:31:45;;;;;;;;;;;15.10;67.70;;;;;;4266336;27;19919;-72
2021/11/10 02:33:48;;;;;;;;;;;15.00;67.70;;;;;;4260059;27;19922;-73
2021/11/10 02:35:57;;;;;;;;;;;15.00;67.70;;;;;;4263979;27;19964;-72
2021/11/10 02:38:04;;;;;;;;;;;15.00;67.70;;;;;;4255604;27;19926;-72
2021/11/10 02:40:08;;;;;;;;;;;15.10;67.80;;;;;;4256948;27;19963;-72
2021/11/10 02:42:11;;;;;;;;;;;15.00;67.70;;;;;;4267961;27;20002;-72
2021/11/10 02:44:15;;;;;;;;;;;15.00;67.70;;;;;;4259889;27;19915;-71
2021/11/10 02:46:18;;;;;;;;;;;15.00;67.70;;;;;;4266712;27;19919;-74
2021/11/10 02:48:21;;;;;;;;;;;15.00;67.70;;;;;;4248417;28;19919;-74
2021/11/10 02:50:27;;;;;;;;;;;15.00;67.70;;;;;;4257090;27;19926;-74
2021/11/10 02:52:30;;;;;;;;;;;15.00;67.70;;;;;;4268660;27;19919;-74
2021/11/10 02:54:35;;;;;;;;;;;15.00;67.70;;;;;;4256836;27;19929;-72
2021/11/10 02:56:38;;;;;;;;;;;15.00;67.70;;;;;;4266826;27;19927;-73
2021/11/10 02:58:41;;;;;;;;;;;15.00;67.70;;;;;;4271482;27;19964;-73
2021/11/10 03:00:43;;;;;;;;;;;15.00;67.70;;;;;;4261593;27;19939;-73
2021/11/10 03:02:46;;;;;;;;;;;14.90;67.60;;;;;;4269130;27;19948;-73
2021/11/10 03:04:49;;;;;;;;;;;15.00;67.70;;;;;;4263100;27;20324;-73
2021/11/10 03:06:52;;;;;;;;;;;14.90;67.70;;;;;;4257619;27;19956;-73
2021/11/10 03:08:55;;;;;;;;;;;14.90;67.70;;;;;;4253161;27;19918;-73
2021/11/10 03:10:59;;;;;;;;;;;14.90;67.60;;;;;;4262136;27;20108;-72
2021/11/10 03:13:02;;;;;;;;;;;14.90;67.70;;;;;;4255518;28;19919;-72
2021/11/10 03:15:05;;;;;;;;;;;14.90;67.60;;;;;;4259305;27;19933;-73
2021/11/10 03:17:09;;;;;;;;;;;14.90;67.70;;;;;;4255256;27;19919;-73
2021/11/10 03:19:12;;;;;;;;;;;14.90;67.70;;;;;;4251025;27;20299;-74
2021/11/10 03:21:14;;;;;;;;;;;14.90;67.70;;;;;;4245138;28;19920;-74
2021/11/10 03:23:17;;;;;;;;;;;14.90;67.60;;;;;;4249078;28;19927;-73
2021/11/10 03:25:20;;;;;;;;;;;14.90;67.70;;;;;;4258698;27;20145;-74
2021/11/10 03:27:26;;;;;;;;;;;14.90;67.70;;;;;;4255648;27;19915;-73
2021/11/10 03:29:29;;;;;;;;;;;14.90;67.70;;;;;;4250128;27;19919;-74
2021/11/10 03:31:32;;;;;;;;;;;14.80;67.70;;;;;;4257726;27;19918;-74
2021/11/10 03:33:35;;;;;;;;;;;14.90;67.70;;;;;;4271212;27;19918;-74
2021/11/10 03:35:38;;;;;;;;;;;14.80;67.60;;;;;;4263603;27;20103;-72
2021/11/10 03:37:41;;;;;;;;;;;14.80;67.60;;;;;;4269175;27;19915;-73
2021/11/10 03:39:44;;;;;;;;;;;14.80;67.60;;;;;;4270247;27;20141;-73
2021/11/10 03:41:47;;;;;;;;;;;14.80;67.60;;;;;;4258780;27;20100;-72
2021/11/10 03:43:51;;;;;;;;;;;14.80;67.60;;;;;;4256853;27;19923;-73
2021/11/10 03:45:55;;;;;;;;;;;14.80;67.60;;;;;;4262014;27;19939;-72
2021/11/10 03:48:00;;;;;;;;;;;14.80;67.60;;;;;;4264198;27;20473;-73
2021/11/10 03:50:03;;;;;;;;;;;14.80;67.60;;;;;;4256991;27;19927;-72
2021/11/10 03:52:06;;;;;;;;;;;14.80;67.60;;;;;;4266648;27;20096;-73
2021/11/10 03:54:08;;;;;;;;;;;14.80;67.60;;;;;;4257356;27;19980;-73
2021/11/10 03:56:11;;;;;;;;;;;14.80;67.60;;;;;;4262791;27;19960;-73
2021/11/10 03:58:14;;;;;;;;;;;14.80;68.20;;;;;;4259698;27;19961;-73
2021/11/10 04:00:18;;;;;;;;;;;14.80;67.60;;;;;;4251983;27;19923;-73
2021/11/10 04:02:20;;;;;;;;;;;14.70;67.50;;;;;;4248607;27;19922;-72
2021/11/10 04:04:23;;;;;;;;;;;14.70;67.50;;;;;;4250499;27;19927;-72
2021/11/10 04:06:26;;;;;;;;;;;14.70;67.40;;;;;;4261620;27;19915;-72
2021/11/10 04:08:29;;;;;;;;;;;14.80;67.50;;;;;;4264586;27;19960;-71
2021/11/10 04:10:32;;;;;;;;;;;14.70;67.50;;;;;;4254592;27;19961;-73
2021/11/10 04:12:34;;;;;;;;;;;14.70;67.50;;;;;;4259466;27;20306;-73
2021/11/10 04:14:37;;;;;;;;;;;14.70;67.50;;;;;;4268930;27;20296;-72
2021/11/10 04:16:41;;;;;;;;;;;14.70;67.50;;;;;;4263978;27;19930;-72
2021/11/10 04:18:44;;;;;;;;;;;14.70;67.50;;;;;;4261699;27;19964;-73
2021/11/10 04:20:47;;;;;;;;;;;14.70;67.40;;;;;;4272289;27;19919;-73
2021/11/10 04:22:50;;;;;;;;;;;14.70;67.50;;;;;;4247937;27;19919;-73
2021/11/10 04:24:53;;;;;;;;;;;14.60;67.40;;;;;;4249929;27;19927;-73
2021/11/10 04:26:57;;;;;;;;;;;14.70;67.40;;;;;;4254919;27;19919;-72
2021/11/10 04:29:00;;;;;;;;;;;14.70;67.40;;;;;;4261132;27;19924;-72
2021/11/10 04:31:03;;;;;;;;;;;14.70;67.50;;;;;;4251843;27;19915;-74
2021/11/10 04:33:07;;;;;;;;;;;14.70;67.40;;;;;;4257650;27;19919;-74
2021/11/10 04:35:11;;;;;;;;;;;14.60;67.40;;;;;;4273945;27;19963;-72
2021/11/10 04:37:15;;;;;;;;;;;14.70;67.50;;;;;;4270790;27;20203;-72
2021/11/10 04:39:17;;;;;;;;;;;14.60;67.40;;;;;;4260860;27;19919;-73
2021/11/10 04:41:20;;;;;;;;;;;14.60;67.40;;;;;;4270171;27;19936;-74
2021/11/10 04:43:23;;;;;;;;;;;14.60;67.40;;;;;;4258409;27;19915;-73
2021/11/10 04:45:32;;;;;;;;;;;14.60;67.40;;;;;;4268133;27;19926;-74
2021/11/10 04:47:36;;;;;;;;;;;14.60;67.40;;;;;;4265877;27;19915;-74
2021/11/10 04:49:40;;;;;;;;;;;14.60;67.40;;;;;;4263181;27;19948;-72
2021/11/10 04:51:43;;;;;;;;;;;14.60;67.40;;;;;;4269055;27;19919;-73
2021/11/10 04:53:48;;;;;;;;;;;14.60;67.40;;;;;;4259703;27;19915;-73
2021/11/10 04:55:50;;;;;;;;;;;14.60;67.40;;;;;;4270272;27;19944;-73
2021/11/10 04:57:53;;;;;;;;;;;14.60;67.40;;;;;;4264540;27;19919;-73
2021/11/10 04:59:56;;;;;;;;;;;14.60;67.40;;;;;;4262072;27;19923;-72
2021/11/10 05:04:07;;;;;;;;;;;14.60;67.40;;;;;;4257234;27;20088;-76
2021/11/10 05:06:11;;;;;;;;;;;14.60;67.40;;;;;;4266724;27;19919;-72
2021/11/10 05:08:14;;;;;;;;;;;14.60;67.50;;;;;;4263720;27;19926;-74
2021/11/10 05:10:17;;;;;;;;;;;14.50;67.40;;;;;;4258586;27;19919;-72
2021/11/10 05:12:19;;;;;;;;;;;14.50;67.40;;;;;;4268621;27;19926;-73
2021/11/10 05:14:22;;;;;;;;;;;14.50;67.40;;;;;;4256831;27;19984;-72
2021/11/10 05:16:25;;;;;;;;;;;14.50;67.40;;;;;;4253863;27;19961;-73
2021/11/10 05:18:28;;;;;;;;;;;14.50;67.40;;;;;;4269331;27;20125;-72
2021/11/10 05:20:30;;;;;;;;;;;14.50;67.40;;;;;;4241951;27;19960;-73
2021/11/10 05:22:35;;;;;;;;;;;14.50;67.40;;;;;;4269312;27;20103;-73
2021/11/10 05:24:37;;;;;;;;;;;14.50;67.40;;;;;;4256460;27;20283;-73
2021/11/10 05:26:40;;;;;;;;;;;14.50;67.40;;;;;;4266194;27;19926;-73
2021/11/10 05:28:43;;;;;;;;;;;14.50;67.40;;;;;;4269831;27;20320;-72
2021/11/10 05:30:45;;;;;;;;;;;14.50;67.40;;;;;;4258560;27;19921;-73
2021/11/10 05:32:48;;;;;;;;;;;14.50;67.40;;;;;;4271129;27;19960;-73
2021/11/10 05:34:51;;;;;;;;;;;14.50;67.40;;;;;;4258965;27;20196;-73
2021/11/10 05:36:54;;;;;;;;;;;14.50;67.40;;;;;;4264926;27;20146;-72
2021/11/10 05:38:58;;;;;;;;;;;14.50;67.40;;;;;;4268846;27;20014;-72
2021/11/10 05:41:01;;;;;;;;;;;14.50;67.40;;;;;;4260134;27;19923;-74
2021/11/10 05:43:04;;;;;;;;;;;14.50;67.40;;;;;;4271786;27;19975;-74
2021/11/10 05:45:07;;;;;;;;;;;14.50;67.40;;;;;;4262708;27;20229;-73
2021/11/10 05:47:10;;;;;;;;;;;14.50;67.40;;;;;;4266604;27;19919;-72
2021/11/10 05:49:12;;;;;;;;;;;14.40;67.30;;;;;;4249304;27;19954;-74
2021/11/10 05:51:15;;;;;;;;;;;14.40;67.30;;;;;;4257337;27;19935;-73
2021/11/10 05:53:18;;;;;;;;;;;14.40;67.30;;;;;;4268237;27;19923;-73
2021/11/10 05:55:24;;;;;;;;;;;14.40;67.30;;;;;;4259320;27;19919;-73
2021/11/10 05:57:27;;;;;;;;;;;14.40;67.30;;;;;;4267067;27;20077;-73
2021/11/10 05:59:30;;;;;;;;;;;14.40;67.30;;;;;;4270936;27;19937;-74
2021/11/10 06:01:33;;;;;;;;;;;14.40;67.30;;;;;;4258024;27;19914;-72
2021/11/10 06:03:36;;;;;;;;;;;14.40;67.30;;;;;;4273113;27;19922;-72
2021/11/10 06:05:39;;;;;;;;;;;14.40;67.30;;;;;;4263747;27;19926;-73
2021/11/10 06:07:41;;;;;;;;;;;14.40;67.30;;;;;;4265297;27;19960;-74
2021/11/10 06:09:44;;;;;;;;;;;14.40;67.30;;;;;;4269402;27;19919;-73
2021/11/10 06:11:48;;;;;;;;;;;14.40;67.30;;;;;;4256973;27;19991;-72
2021/11/10 06:13:51;;;;;;;;;;;14.40;67.30;;;;;;4269872;27;19914;-73
2021/11/10 06:15:53;;;;;;;;;;;14.40;67.20;;;;;;4263287;27;19923;-72
2021/11/10 06:17:56;;;;;;;;;;;14.40;67.20;;;;;;4263418;27;19915;-73
2021/11/10 06:20:02;;;;;;;;;;;14.40;67.30;;;;;;4267618;27;19922;-72
2021/11/10 06:22:04;;;;;;;;;;;14.40;67.20;;;;;;4254871;27;19919;-72
2021/11/10 06:24:07;;;;;;;;;;;14.40;67.20;;;;;;4250726;27;19927;-72
2021/11/10 06:26:10;;;;;;;;;;;14.30;67.20;;;;;;4263320;27;19915;-71
2021/11/10 06:28:14;;;;;;;;;;;14.40;67.20;;;;;;4263409;27;19975;-73
2021/11/10 06:30:17;;;;;;;;;;;14.30;67.20;;;;;;4268179;27;19926;-74
2021/11/10 06:32:19;;;;;;;;;;;14.30;67.20;;;;;;4255313;27;19931;-74
2021/11/10 06:34:22;;;;;;;;;;;14.30;67.10;;;;;;4268933;27;19915;-75
2021/11/10 06:36:26;;;;;;;;;;;14.30;67.10;;;;;;4261937;27;19919;-72
2021/11/10 06:38:29;;;;;;;;;;;14.30;67.10;;;;;;4262123;27;19914;-73
2021/11/10 06:40:31;;;;;;;;;;;14.30;67.10;;;;;;4269387;27;19972;-74
2021/11/10 06:42:34;;;;;;;;;;;14.30;67.70;;;;;;4269272;27;20324;-74
2021/11/10 06:44:38;;;;;;;;;;;14.30;67.10;;;;;;4253114;28;20479;-72
2021/11/10 06:46:41;;;;;;;;;;;14.30;67.10;;;;;;4257572;27;20188;-75
2021/11/10 06:48:44;;;;;;;;;;;14.30;67.10;;;;;;4260495;27;20306;-74
2021/11/10 06:50:47;;;;;;;;;;;14.30;67.10;;;;;;4269530;27;19922;-73
2021/11/10 06:52:49;;;;;;;;;;;14.30;67.10;;;;;;4265384;27;19915;-72
2021/11/10 06:54:53;;;;;;;;;;;14.30;67.10;;;;;;4235031;28;20375;-71
2021/11/10 06:56:55;;;;;;;;;;;14.20;67.10;;;;;;4256438;27;20256;-70
2021/11/10 06:58:59;;;;;;;;;;;14.20;67.10;;;;;;4242493;28;19916;-71
2021/11/10 07:01:04;;;;;;;;;;;14.20;67.00;;;;;;4253069;28;19919;-71
2021/11/10 07:03:07;;;;;;;;;;;14.20;67.10;;;;;;4261965;27;19918;-73
2021/11/10 07:05:10;;;;;;;;;;;14.30;67.10;;;;;;4253152;27;20207;-72
2021/11/10 07:07:14;;;;;;;;;;;14.30;67.10;;;;;;4261594;27;19927;-72
2021/11/10 07:09:16;;;;;;;;;;;14.20;67.10;;;;;;4262795;27;19923;-72
2021/11/10 07:11:19;;;;;;;;;;;14.20;67.00;;;;;;4256254;27;19916;-71
2021/11/10 07:13:22;;;;;;;;;;;14.20;67.00;;;;;;4268564;27;20076;-74
2021/11/10 07:15:25;;;;;;;;;;;14.20;67.00;;;;;;4254235;27;19919;-73
2021/11/10 07:17:29;;;;;;;;;;;14.20;67.00;;;;;;4255555;27;19935;-71
2021/11/10 07:19:34;;;;;;;;;;;14.20;67.10;;;;;;4263710;27;19915;-73
2021/11/10 07:21:37;;;;;;;;;;;14.20;67.00;;;;;;4236421;28;19920;-74
2021/11/10 07:23:41;;;;;;;;;;;14.20;67.00;;;;;;4266520;27;20312;-70
2021/11/10 07:25:44;;;;;;;;;;;14.20;67.00;;;;;;4235090;27;19949;-71
2021/11/10 07:27:46;;;;;;;;;;;14.20;67.00;;;;;;4259150;27;19975;-71
2021/11/10 07:29:49;;;;;;;;;;;14.20;67.00;;;;;;4241881;27;19927;-72
2021/11/10 07:31:51;;;;;;;;;;;14.20;67.00;;;;;;4269669;27;19915;-72
2021/11/10 07:33:59;;;;;;;;;;;14.20;67.00;;;;;;4253705;27;19915;-73
2021/11/10 07:36:01;;;;;;;;;;;14.20;67.00;;;;;;4257221;27;19915;-71
2021/11/10 07:38:05;;;;;;;;;;;14.10;67.00;;;;;;4268931;27;20084;-72
2021/11/10 07:40:09;;;;;;;;;;;14.20;67.00;;;;;;4251133;27;19980;-72
2021/11/10 07:42:12;;;;;;;;;;;14.10;67.00;;;;;;4250376;27;19920;-71
2021/11/10 07:44:15;;;;;;;;;;;14.10;67.00;;;;;;4241994;27;19919;-74
2021/11/10 07:46:19;;;;;;;;;;;14.10;67.00;;;;;;4258662;27;19949;-72
2021/11/10 07:48:22;;;;;;;;;;;14.10;67.00;;;;;;4238800;27;19933;-70
2021/11/10 07:50:26;;;;;;;;;;;14.10;67.00;;;;;;4261842;27;19916;-70
2021/11/10 07:52:29;;;;;;;;;;;14.10;67.00;;;;;;4249661;27;20466;-71
2021/11/10 07:54:32;;;;;;;;;;;14.10;67.00;;;;;;4261102;27;19915;-73
2021/11/10 07:56:35;;;;;;;;;;;14.10;67.00;;;;;;4252980;27;19919;-72
2021/11/10 07:58:38;;;;;;;;;;;14.10;66.90;;;;;;4250535;27;19919;-73
2021/11/10 08:00:41;;;;;;;;;;;14.10;67.00;;;;;;4264559;27;20395;-73
2021/11/10 08:02:44;;;;;;;;;;;14.10;67.00;;;;;;4255925;27;19922;-71
2021/11/10 08:04:48;;;;;;;;;;;14.10;66.90;;;;;;4255353;27;20662;-72
2021/11/10 08:06:52;;;;;;;;;;;14.10;66.90;;;;;;4266919;27;19949;-71
2021/11/10 08:08:54;;;;;;;;;;;14.10;66.90;;;;;;4249092;27;19977;-71
2021/11/10 08:10:58;;;;;;;;;;;14.10;66.90;;;;;;4259954;27;20367;-71
2021/11/10 08:13:01;;;;;;;;;;;14.10;67.00;;;;;;4271892;27;19951;-73
2021/11/10 08:15:04;;;;;;;;;;;14.10;66.90;;;;;;4243013;27;20089;-72
2021/11/10 08:17:06;;;;;;;;;;;14.10;66.90;;;;;;4265261;27;19919;-71
2021/11/10 08:19:09;;;;;;;;;;;14.10;66.90;;;;;;4266453;27;19930;-71
2021/11/10 08:21:12;;;;;;;;;;;14.10;66.90;;;;;;4261349;27;19925;-74
2021/11/10 08:23:20;;;;;;;;;;;14.10;66.90;;;;;;4274557;27;20107;-72
2021/11/10 08:25:23;;;;;;;;;;;14.10;66.90;;;;;;4265832;27;19922;-72
2021/11/10 08:27:26;;;;;;;;;;;14.10;66.90;;;;;;4256040;27;20287;-72
2021/11/10 08:29:28;;;;;;;;;;;14.10;66.90;;;;;;4255095;27;19922;-72
2021/11/10 08:31:31;;;;;;;;;;;14.10;66.90;;;;;;4264108;27;19919;-73
2021/11/10 08:33:34;;;;;;;;;;;14.10;66.90;;;;;;4251663;27;19950;-71
2021/11/10 08:35:37;;;;;;;;;;;14.10;66.90;;;;;;4257990;27;20013;-73
2021/11/10 08:37:40;;;;;;;;;;;14.10;66.90;;;;;;4255733;27;19920;-72
2021/11/10 08:39:44;;;;;;;;;;;14.10;66.80;;;;;;4250097;27;20036;-73
2021/11/10 08:41:48;;;;;;;;;;;14.10;66.90;;;;;;4265148;27;19933;-72
2021/11/10 08:43:51;;;;;;;;;;;14.10;66.80;;;;;;4232007;27;19968;-71
2021/11/10 08:45:55;;;;;;;;;;;14.10;66.90;;;;;;4257000;27;19919;-71
2021/11/10 08:47:57;;;;;;;;;;;14.10;66.90;;;;;;4239434;27;19959;-71
2021/11/10 08:50:00;;;;;;;;;;;14.10;66.80;;;;;;4251534;27;19919;-71
2021/11/10 08:52:03;;;;;;;;;;;14.10;66.80;;;;;;4257653;27;19916;-72
2021/11/10 08:54:06;;;;;;;;;;;14.10;66.90;;;;;;4272771;27;20193;-71
2021/11/10 08:56:11;;;;;;;;;;;14.10;66.80;;;;;;4262357;27;19927;-72
2021/11/10 08:58:14;;;;;;;;;;;14.10;66.80;;;;;;4261950;27;19948;-70
2021/11/10 09:00:18;;;;;;;;;;;14.10;66.90;;;;;;4267357;27;19934;-70
2021/11/10 09:02:21;;;;;;;;;;;14.10;66.90;;;;;;4252051;27;19973;-73
2021/11/10 09:04:24;;;;;;;;;;;14.10;66.80;;;;;;4269980;27;19925;-71
2021/11/10 09:06:27;;;;;;;;;;;14.10;66.90;;;;;;4267067;27;20107;-73
2021/11/10 09:08:31;;;;;;;;;;;14.10;66.80;;;;;;4259973;27;20283;-73
2021/11/10 09:10:33;;;;;;;;;;;14.10;66.90;;;;;;4267911;27;19915;-71
2021/11/10 09:12:38;;;;;;;;;;;14.10;66.90;;;;;;4254276;27;19919;-70
2021/11/10 09:14:40;;;;;;;;;;;14.10;66.90;;;;;;4267053;27;20333;-70
2021/11/10 09:16:43;;;;;;;;;;;14.10;66.90;;;;;;4263698;27;19928;-73
2021/11/10 09:18:46;;;;;;;;;;;14.10;66.90;;;;;;4263206;27;19921;-71
2021/11/10 09:20:49;;;;;;;;;;;14.10;66.90;;;;;;4265599;27;19931;-70
2021/11/10 09:22:54;;;;;;;;;;;14.10;66.90;;;;;;4255275;27;19942;-72
2021/11/10 09:24:57;;;;;;;;;;;14.10;66.90;;;;;;4268782;27;19918;-71
2021/11/10 09:27:00;;;;;;;;;;;14.10;66.90;;;;;;4243433;27;19919;-72
2021/11/10 09:29:04;;;;;;;;;;;14.10;66.90;;;;;;4260880;27;19926;-71
2021/11/10 09:31:08;;;;;;;;;;;14.10;66.90;;;;;;4250425;27;19923;-72
2021/11/10 09:33:14;;;;;;;;;;;14.20;67.00;;;;;;4256103;27;19919;-73
2021/11/10 09:35:18;;;;;;;;;;;14.10;66.90;;;;;;4267702;27;20553;-72
2021/11/10 09:37:20;;;;;;;;;;;14.10;67.00;;;;;;4265533;27;19915;-72
2021/11/10 09:39:24;;;;;;;;;;;14.10;66.90;;;;;;4262063;27;19952;-72
2021/11/10 09:41:27;;;;;;;;;;;14.10;66.90;;;;;;4250486;27;19919;-72
2021/11/10 09:43:32;;;;;;;;;;;14.20;67.00;;;;;;4268866;27;19922;-71
2021/11/10 09:45:36;;;;;;;;;;;14.10;67.00;;;;;;4253683;27;19915;-72
2021/11/10 09:47:39;;;;;;;;;;;14.20;67.00;;;;;;4253543;27;19923;-72
2021/11/10 09:49:42;;;;;;;;;;;14.10;67.00;;;;;;4259019;27;20280;-72
2021/11/10 09:51:46;;;;;;;;;;;14.10;67.00;;;;;;4249662;27;20329;-72
2021/11/10 09:53:48;;;;;;;;;;;14.10;67.00;;;;;;4252723;27;19915;-72
2021/11/10 09:55:54;;;;;;;;;;;14.20;67.00;;;;;;4250097;27;20212;-72
2021/11/10 09:57:57;;;;;;;;;;;14.20;67.00;;;;;;4255449;27;19919;-73
2021/11/10 10:00:01;;;;;;;;;;;14.20;67.00;;;;;;4258694;27;19980;-72
2021/11/10 10:02:13;;;;;;;;;;;14.20;67.00;;;;;;4249990;27;19968;-72
2021/11/10 10:04:16;;;;;;;;;;;14.20;67.00;;;;;;4253972;27;19920;-70
2021/11/10 10:06:20;;;;;;;;;;;14.20;67.00;;;;;;4265756;27;19979;-70
2021/11/10 10:08:23;;;;;;;;;;;14.20;67.00;;;;;;4263624;27;19932;-70
2021/11/10 10:10:26;;;;;;;;;;;14.20;67.10;;;;;;4261163;27;19919;-72
2021/11/10 10:12:29;;;;;;;;;;;14.20;67.00;;;;;;4272414;27;19921;-71
2021/11/10 10:14:32;;;;;;;;;;;14.20;67.00;;;;;;4262862;27;19963;-71
2021/11/10 10:16:35;;;;;;;;;;;14.20;67.00;;;;;;4248433;27;19919;-70
2021/11/10 10:18:39;;;;;;;;;;;14.20;67.00;;;;;;4253010;27;19958;-71
2021/11/10 10:20:43;;;;;;;;;;;14.20;67.00;;;;;;4262072;27;19923;-72
2021/11/10 10:22:46;;;;;;;;;;;14.30;67.60;;;;;;4253019;27;20314;-71
2021/11/10 10:24:49;;;;;;;;;;;14.30;67.40;;;;;;4263724;27;19945;-73
2021/11/10 10:26:53;;;;;;;;;;;14.30;67.30;;;;;;4265262;27;19915;-71
2021/11/10 10:28:58;;;;;;;;;;;14.30;67.50;;;;;;4259785;27;20367;-71
2021/11/10 10:31:03;;;;;;;;;;;14.30;67.70;;;;;;4254336;27;19919;-71
2021/11/10 10:33:09;;;;;;;;;;;14.40;67.70;;;;;;4245445;27;19920;-71
2021/11/10 10:35:27;;;;;;;;;;;14.40;67.80;;;;;;4262920;27;19976;-73
2021/11/10 10:37:31;;;;;;;;;;;14.40;67.80;;;;;;4266021;27;19923;-72
2021/11/10 10:39:34;;;;;;;;;;;14.40;67.70;;;;;;4257086;27;19923;-71
2021/11/10 10:41:39;;;;;;;;;;;14.30;67.60;;;;;;4256187;27;20257;-71
2021/11/10 10:43:43;;;;;;;;;;;14.40;67.70;;;;;;4260025;27;19915;-70
2021/11/10 10:45:48;;;;;;;;;;;14.40;67.40;;;;;;4262071;27;19915;-71
2021/11/10 10:47:54;;;;;;;;;;;14.40;67.40;;;;;;4264900;27;19964;-71
2021/11/10 10:49:57;;;;;;;;;;;14.40;67.50;;;;;;4244636;27;19927;-73
2021/11/10 10:52:10;;;;;;;;;;;14.40;67.50;;;;;;4256931;27;19927;-71
2021/11/10 10:54:14;;;;;;;;;;;14.40;67.80;;;;;;4255845;27;19932;-72
2021/11/10 10:56:18;;;;;;;;;;;14.50;67.80;;;;;;4258246;27;19919;-70
2021/11/10 10:58:32;;;;;;;;;;;14.40;67.50;;;;;;4267973;27;19919;-70
2021/11/10 11:00:37;;;;;;;;;;;14.40;67.60;;;;;;4241347;27;19920;-73
2021/11/10 11:02:39;;;;;;;;;;;14.30;67.90;;;;;;4264645;27;20222;-69
2021/11/10 11:04:44;;;;;;;;;;;14.30;68.20;;;;;;4264692;27;19919;-69
2021/11/10 11:06:48;;;;;;;;;;;14.40;68.30;;;;;;4254729;27;19923;-69
2021/11/10 11:08:52;;;;;;;;;;;14.40;68.40;;;;;;4244457;27;19923;-70
2021/11/10 11:11:00;;;;;;;;;;;14.40;68.50;;;;;;4259120;27;20527;-72
2021/11/10 11:13:03;;;;;;;;;;;14.40;68.50;;;;;;4252076;27;19919;-71
2021/11/10 11:15:13;;;;;;;;;;;14.40;68.40;;;;;;4252083;27;19927;-73
2021/11/10 11:17:23;;;;;;;;;;;14.40;68.50;;;;;;4260265;27;19945;-72
2021/11/10 11:19:26;;;;;;;;;;;14.40;68.50;;;;;;4249000;27;19926;-67
2021/11/10 11:21:28;;;;;;;;;;;14.50;68.30;;;;;;4259436;27;19927;-68
2021/11/10 11:23:40;;;;;;;;;;;14.40;68.30;;;;;;4251300;27;19927;-69
2021/11/10 11:25:44;;;;;;;;;;;14.50;68.30;;;;;;4234963;27;19930;-73
2021/11/10 11:27:53;;;;;;;;;;;14.50;68.60;;;;;;4259470;27;19948;-71
2021/11/10 11:29:57;;;;;;;;;;;14.50;68.60;;;;;;4250006;27;19919;-70
2021/11/10 11:32:00;;;;;;;;;;;14.50;68.50;;;;;;4261661;27;19919;-68
2021/11/10 11:34:04;;;;;;;;;;;14.50;68.50;;;;;;4234514;27;19920;-72
2021/11/10 11:36:10;;;;;;;;;;;14.50;68.40;;;;;;4233180;27;19923;-71
2021/11/10 11:38:15;;;;;;;;;;;14.50;68.40;;;;;;4257944;27;19920;-71
2021/11/10 11:40:19;;;;;;;;;;;14.60;68.40;;;;;;4231020;28;19919;-72
2021/11/10 11:42:26;;;;;;;;;;;14.60;68.00;;;;;;4245892;27;20160;-71
2021/11/10 11:44:30;;;;;;;;;;;14.60;67.80;;;;;;4251206;27;20359;-71
2021/11/10 11:46:33;;;;;;;;;;;14.60;67.60;;;;;;4257507;27;19923;-72
2021/11/10 11:48:36;;;;;;;;;;;14.70;67.80;;;;;;4255380;27;20006;-72
2021/11/10 11:50:39;;;;;;;;;;;14.60;67.60;;;;;;4251461;27;19931;-72
2021/11/10 11:52:44;;;;;;;;;;;14.60;67.60;;;;;;4234571;27;19924;-71
2021/11/10 11:54:49;;;;;;;;;;;14.70;67.50;;;;;;4267023;27;19919;-68
2021/11/10 11:56:52;;;;;;;;;;;14.70;67.50;;;;;;4261101;27;20396;-69
2021/11/10 11:58:58;;;;;;;;;;;14.70;67.50;;;;;;4257476;27;19933;-70
2021/11/10 12:01:03;;;;;;;;;;;14.70;67.20;;;;;;4248510;27;19923;-72